sensor_id;sensor_type;location;lat;lon;timestamp;P1;durP1;ratioP1;P2;durP2;ratioP2
5904;SDS011;2978;42.012;24.880;2023-03-03T00:00:50;37.13;;;25.90;;
5904;SDS011;2978;42.012;24.880;2023-03-03T00:03:19;42.67;;;26.00;;
5904;SDS011;2978;42.012;24.880;2023-03-03T00:05:47;38.67;;;25.03;;
5904;SDS011;2978;42.012;24.880;2023-03-03T00:08:14;52.80;;;26.77;;
5904;SDS011;2978;42.012;24.880;2023-03-03T00:10:39;41.63;;;26.07;;
5904;SDS011;2978;42.012;24.880;2023-03-03T00:13:18;46.30;;;26.90;;
5904;SDS011;2978;42.012;24.880;2023-03-03T00:15:46;50.87;;;27.27;;
5904;SDS011;2978;42.012;24.880;2023-03-03T00:18:16;48.73;;;26.03;;
5904;SDS011;2978;42.012;24.880;2023-03-03T00:20:54;46.00;;;24.00;;
5904;SDS011;2978;42.012;24.880;2023-03-03T00:26:06;46.03;;;23.40;;
5904;SDS011;2978;42.012;24.880;2023-03-03T00:28:45;38.60;;;23.63;;
5904;SDS011;2978;42.012;24.880;2023-03-03T00:31:16;39.47;;;24.00;;
5904;SDS011;2978;42.012;24.880;2023-03-03T00:33:44;52.10;;;24.30;;
5904;SDS011;2978;42.012;24.880;2023-03-03T00:38:40;38.70;;;24.00;;
5904;SDS011;2978;42.012;24.880;2023-03-03T00:41:15;49.20;;;25.73;;
5904;SDS011;2978;42.012;24.880;2023-03-03T00:43:45;43.00;;;25.13;;
5904;SDS011;2978;42.012;24.880;2023-03-03T00:46:12;36.67;;;23.73;;
5904;SDS011;2978;42.012;24.880;2023-03-03T00:48:42;44.23;;;23.13;;
5904;SDS011;2978;42.012;24.880;2023-03-03T00:51:29;34.03;;;23.87;;
5904;SDS011;2978;42.012;24.880;2023-03-03T00:53:58;36.13;;;22.87;;
5904;SDS011;2978;42.012;24.880;2023-03-03T00:56:24;40.63;;;24.40;;
5904;SDS011;2978;42.012;24.880;2023-03-03T00:58:50;46.33;;;24.50;;
5904;SDS011;2978;42.012;24.880;2023-03-03T01:01:16;36.20;;;23.80;;
5904;SDS011;2978;42.012;24.880;2023-03-03T01:03:43;30.77;;;23.10;;
5904;SDS011;2978;42.012;24.880;2023-03-03T01:06:08;43.73;;;25.20;;
5904;SDS011;2978;42.012;24.880;2023-03-03T01:08:35;37.43;;;25.00;;
5904;SDS011;2978;42.012;24.880;2023-03-03T01:11:19;39.33;;;22.00;;
5904;SDS011;2978;42.012;24.880;2023-03-03T01:13:47;39.07;;;23.50;;
5904;SDS011;2978;42.012;24.880;2023-03-03T01:16:14;40.10;;;24.33;;
5904;SDS011;2978;42.012;24.880;2023-03-03T01:18:39;39.73;;;22.60;;
5904;SDS011;2978;42.012;24.880;2023-03-03T01:21:06;34.63;;;22.63;;
5904;SDS011;2978;42.012;24.880;2023-03-03T01:23:32;44.20;;;22.07;;
5904;SDS011;2978;42.012;24.880;2023-03-03T01:25:58;36.60;;;20.90;;
5904;SDS011;2978;42.012;24.880;2023-03-03T01:28:23;33.23;;;21.63;;
5904;SDS011;2978;42.012;24.880;2023-03-03T01:30:49;36.67;;;22.50;;
5904;SDS011;2978;42.012;24.880;2023-03-03T01:33:15;40.13;;;23.70;;
5904;SDS011;2978;42.012;24.880;2023-03-03T01:35:45;33.67;;;22.03;;
5904;SDS011;2978;42.012;24.880;2023-03-03T01:38:11;38.20;;;21.97;;
5904;SDS011;2978;42.012;24.880;2023-03-03T01:40:37;34.73;;;20.90;;
5904;SDS011;2978;42.012;24.880;2023-03-03T01:43:03;35.83;;;20.43;;
5904;SDS011;2978;42.012;24.880;2023-03-03T01:45:29;36.73;;;19.97;;
5904;SDS011;2978;42.012;24.880;2023-03-03T01:53:52;39.10;;;22.00;;
5904;SDS011;2978;42.012;24.880;2023-03-03T01:56:21;34.77;;;19.87;;
5904;SDS011;2978;42.012;24.880;2023-03-03T01:59:05;40.40;;;21.37;;
5904;SDS011;2978;42.012;24.880;2023-03-03T02:01:36;43.87;;;21.27;;
5904;SDS011;2978;42.012;24.880;2023-03-03T02:04:01;33.67;;;19.00;;
5904;SDS011;2978;42.012;24.880;2023-03-03T02:06:37;35.00;;;18.47;;
5904;SDS011;2978;42.012;24.880;2023-03-03T02:11:38;30.97;;;19.00;;
5904;SDS011;2978;42.012;24.880;2023-03-03T02:14:07;33.50;;;19.20;;
5904;SDS011;2978;42.012;24.880;2023-03-03T02:16:33;32.47;;;17.93;;
5904;SDS011;2978;42.012;24.880;2023-03-03T02:18:58;31.20;;;18.67;;
5904;SDS011;2978;42.012;24.880;2023-03-03T02:21:24;34.87;;;18.83;;
5904;SDS011;2978;42.012;24.880;2023-03-03T02:24:07;31.37;;;18.60;;
5904;SDS011;2978;42.012;24.880;2023-03-03T02:26:36;27.70;;;18.13;;
5904;SDS011;2978;42.012;24.880;2023-03-03T02:29:04;31.07;;;19.50;;
5904;SDS011;2978;42.012;24.880;2023-03-03T02:31:30;27.37;;;16.50;;
5904;SDS011;2978;42.012;24.880;2023-03-03T02:33:56;35.00;;;17.47;;
5904;SDS011;2978;42.012;24.880;2023-03-03T02:36:29;33.53;;;18.60;;
5904;SDS011;2978;42.012;24.880;2023-03-03T02:44:10;40.20;;;18.00;;
5904;SDS011;2978;42.012;24.880;2023-03-03T02:46:41;27.20;;;16.17;;
5904;SDS011;2978;42.012;24.880;2023-03-03T02:49:10;37.10;;;18.20;;
5904;SDS011;2978;42.012;24.880;2023-03-03T02:51:37;30.23;;;16.80;;
5904;SDS011;2978;42.012;24.880;2023-03-03T02:54:04;36.73;;;19.97;;
5904;SDS011;2978;42.012;24.880;2023-03-03T02:56:30;32.77;;;18.57;;
5904;SDS011;2978;42.012;24.880;2023-03-03T02:58:55;35.93;;;17.90;;
5904;SDS011;2978;42.012;24.880;2023-03-03T03:01:21;40.77;;;18.93;;
5904;SDS011;2978;42.012;24.880;2023-03-03T03:03:47;33.53;;;19.30;;
5904;SDS011;2978;42.012;24.880;2023-03-03T03:06:12;44.27;;;21.97;;
5904;SDS011;2978;42.012;24.880;2023-03-03T03:08:38;38.20;;;20.57;;
5904;SDS011;2978;42.012;24.880;2023-03-03T03:11:04;36.23;;;20.80;;
5904;SDS011;2978;42.012;24.880;2023-03-03T03:13:32;34.37;;;20.47;;
5904;SDS011;2978;42.012;24.880;2023-03-03T03:15:58;40.50;;;18.47;;
5904;SDS011;2978;42.012;24.880;2023-03-03T03:18:24;30.40;;;16.93;;
5904;SDS011;2978;42.012;24.880;2023-03-03T03:20:50;33.17;;;16.60;;
5904;SDS011;2978;42.012;24.880;2023-03-03T03:23:15;28.70;;;16.07;;
5904;SDS011;2978;42.012;24.880;2023-03-03T03:25:41;31.50;;;16.40;;
5904;SDS011;2978;42.012;24.880;2023-03-03T03:28:13;34.73;;;17.03;;
5904;SDS011;2978;42.012;24.880;2023-03-03T03:30:40;26.80;;;16.17;;
5904;SDS011;2978;42.012;24.880;2023-03-03T03:33:06;28.83;;;15.93;;
5904;SDS011;2978;42.012;24.880;2023-03-03T03:35:32;29.23;;;17.07;;
5904;SDS011;2978;42.012;24.880;2023-03-03T03:37:58;50.70;;;25.67;;
5904;SDS011;2978;42.012;24.880;2023-03-03T03:40:24;36.83;;;21.03;;
5904;SDS011;2978;42.012;24.880;2023-03-03T03:42:51;38.70;;;20.30;;
5904;SDS011;2978;42.012;24.880;2023-03-03T03:45:17;32.73;;;16.67;;
5904;SDS011;2978;42.012;24.880;2023-03-03T03:47:42;25.97;;;16.27;;
5904;SDS011;2978;42.012;24.880;2023-03-03T03:50:08;33.10;;;17.63;;
5904;SDS011;2978;42.012;24.880;2023-03-03T03:52:34;30.10;;;16.60;;
5904;SDS011;2978;42.012;24.880;2023-03-03T03:55:00;29.07;;;17.03;;
5904;SDS011;2978;42.012;24.880;2023-03-03T03:57:25;30.43;;;15.60;;
5904;SDS011;2978;42.012;24.880;2023-03-03T03:59:51;31.43;;;15.60;;
5904;SDS011;2978;42.012;24.880;2023-03-03T04:02:16;26.57;;;15.30;;
5904;SDS011;2978;42.012;24.880;2023-03-03T04:04:42;35.40;;;15.23;;
5904;SDS011;2978;42.012;24.880;2023-03-03T04:07:07;25.13;;;14.03;;
5904;SDS011;2978;42.012;24.880;2023-03-03T04:09:33;37.67;;;14.53;;
5904;SDS011;2978;42.012;24.880;2023-03-03T04:11:59;24.60;;;14.13;;
5904;SDS011;2978;42.012;24.880;2023-03-03T04:14:24;20.50;;;12.03;;
5904;SDS011;2978;42.012;24.880;2023-03-03T04:16:50;29.50;;;13.60;;
5904;SDS011;2978;42.012;24.880;2023-03-03T04:19:15;30.60;;;13.83;;
5904;SDS011;2978;42.012;24.880;2023-03-03T04:21:41;31.53;;;15.40;;
5904;SDS011;2978;42.012;24.880;2023-03-03T04:24:06;22.37;;;13.67;;
5904;SDS011;2978;42.012;24.880;2023-03-03T04:26:32;19.23;;;11.63;;
5904;SDS011;2978;42.012;24.880;2023-03-03T04:28:57;17.57;;;11.63;;
5904;SDS011;2978;42.012;24.880;2023-03-03T04:31:23;21.87;;;12.97;;
5904;SDS011;2978;42.012;24.880;2023-03-03T04:33:50;19.23;;;12.63;;
5904;SDS011;2978;42.012;24.880;2023-03-03T04:36:16;47.87;;;14.50;;
5904;SDS011;2978;42.012;24.880;2023-03-03T04:38:41;17.90;;;12.60;;
5904;SDS011;2978;42.012;24.880;2023-03-03T04:41:07;36.63;;;15.33;;
5904;SDS011;2978;42.012;24.880;2023-03-03T04:43:32;32.50;;;15.97;;
5904;SDS011;2978;42.012;24.880;2023-03-03T04:45:58;24.03;;;14.20;;
5904;SDS011;2978;42.012;24.880;2023-03-03T04:48:23;28.83;;;16.40;;
5904;SDS011;2978;42.012;24.880;2023-03-03T04:50:49;38.90;;;15.47;;
5904;SDS011;2978;42.012;24.880;2023-03-03T04:53:14;21.60;;;14.83;;
5904;SDS011;2978;42.012;24.880;2023-03-03T04:55:39;29.33;;;15.50;;
5904;SDS011;2978;42.012;24.880;2023-03-03T04:58:05;37.00;;;15.87;;
5904;SDS011;2978;42.012;24.880;2023-03-03T05:00:31;40.23;;;16.77;;
5904;SDS011;2978;42.012;24.880;2023-03-03T05:02:57;37.23;;;19.83;;
5904;SDS011;2978;42.012;24.880;2023-03-03T05:05:22;30.63;;;19.70;;
5904;SDS011;2978;42.012;24.880;2023-03-03T05:07:48;40.30;;;17.03;;
5904;SDS011;2978;42.012;24.880;2023-03-03T05:10:13;36.23;;;17.93;;
5904;SDS011;2978;42.012;24.880;2023-03-03T05:12:39;30.40;;;15.87;;
5904;SDS011;2978;42.012;24.880;2023-03-03T05:15:04;29.60;;;17.53;;
5904;SDS011;2978;42.012;24.880;2023-03-03T05:17:30;34.53;;;15.93;;
5904;SDS011;2978;42.012;24.880;2023-03-03T05:19:56;29.53;;;17.17;;
5904;SDS011;2978;42.012;24.880;2023-03-03T05:22:22;30.70;;;18.07;;
5904;SDS011;2978;42.012;24.880;2023-03-03T05:24:48;25.33;;;18.90;;
5904;SDS011;2978;42.012;24.880;2023-03-03T05:27:14;36.80;;;21.27;;
5904;SDS011;2978;42.012;24.880;2023-03-03T05:29:40;43.73;;;21.23;;
5904;SDS011;2978;42.012;24.880;2023-03-03T05:32:05;34.83;;;21.37;;
5904;SDS011;2978;42.012;24.880;2023-03-03T05:34:31;38.90;;;21.70;;
5904;SDS011;2978;42.012;24.880;2023-03-03T05:36:57;34.13;;;22.10;;
5904;SDS011;2978;42.012;24.880;2023-03-03T05:39:23;41.40;;;23.07;;
5904;SDS011;2978;42.012;24.880;2023-03-03T05:41:48;40.50;;;23.50;;
5904;SDS011;2978;42.012;24.880;2023-03-03T05:44:14;30.50;;;21.00;;
5904;SDS011;2978;42.012;24.880;2023-03-03T05:46:39;30.37;;;22.17;;
5904;SDS011;2978;42.012;24.880;2023-03-03T05:49:06;42.33;;;22.00;;
5904;SDS011;2978;42.012;24.880;2023-03-03T05:51:32;26.97;;;20.17;;
5904;SDS011;2978;42.012;24.880;2023-03-03T05:53:57;32.37;;;20.77;;
5904;SDS011;2978;42.012;24.880;2023-03-03T05:56:22;29.97;;;20.80;;
5904;SDS011;2978;42.012;24.880;2023-03-03T05:58:48;30.80;;;19.37;;
5904;SDS011;2978;42.012;24.880;2023-03-03T06:01:13;36.37;;;21.93;;
5904;SDS011;2978;42.012;24.880;2023-03-03T06:03:39;34.10;;;21.47;;
5904;SDS011;2978;42.012;24.880;2023-03-03T06:06:04;33.37;;;21.67;;
5904;SDS011;2978;42.012;24.880;2023-03-03T06:08:30;38.10;;;22.93;;
5904;SDS011;2978;42.012;24.880;2023-03-03T06:10:56;75.47;;;27.77;;
5904;SDS011;2978;42.012;24.880;2023-03-03T06:13:22;40.87;;;26.50;;
5904;SDS011;2978;42.012;24.880;2023-03-03T06:15:47;61.57;;;29.63;;
5904;SDS011;2978;42.012;24.880;2023-03-03T06:18:13;54.03;;;33.27;;
5904;SDS011;2978;42.012;24.880;2023-03-03T06:20:38;42.77;;;28.90;;
5904;SDS011;2978;42.012;24.880;2023-03-03T06:23:04;46.67;;;31.07;;
5904;SDS011;2978;42.012;24.880;2023-03-03T06:25:29;41.33;;;30.60;;
5904;SDS011;2978;42.012;24.880;2023-03-03T06:27:56;41.00;;;27.43;;
5904;SDS011;2978;42.012;24.880;2023-03-03T06:30:22;41.37;;;26.97;;
5904;SDS011;2978;42.012;24.880;2023-03-03T06:32:47;38.23;;;28.93;;
5904;SDS011;2978;42.012;24.880;2023-03-03T06:35:12;42.40;;;29.10;;
5904;SDS011;2978;42.012;24.880;2023-03-03T06:37:38;50.13;;;33.57;;
5904;SDS011;2978;42.012;24.880;2023-03-03T06:40:04;48.00;;;30.63;;
5904;SDS011;2978;42.012;24.880;2023-03-03T06:42:30;62.70;;;36.90;;
5904;SDS011;2978;42.012;24.880;2023-03-03T06:44:55;75.03;;;41.73;;
5904;SDS011;2978;42.012;24.880;2023-03-03T06:47:21;52.17;;;30.30;;
5904;SDS011;2978;42.012;24.880;2023-03-03T06:49:46;39.17;;;26.40;;
5904;SDS011;2978;42.012;24.880;2023-03-03T06:52:19;38.40;;;24.73;;
5904;SDS011;2978;42.012;24.880;2023-03-03T06:54:48;49.60;;;31.90;;
5904;SDS011;2978;42.012;24.880;2023-03-03T06:57:35;39.73;;;26.50;;
5904;SDS011;2978;42.012;24.880;2023-03-03T07:00:09;35.77;;;23.37;;
5904;SDS011;2978;42.012;24.880;2023-03-03T07:02:39;39.60;;;24.07;;
5904;SDS011;2978;42.012;24.880;2023-03-03T07:05:06;30.60;;;22.40;;
5904;SDS011;2978;42.012;24.880;2023-03-03T07:07:37;34.20;;;22.73;;
5904;SDS011;2978;42.012;24.880;2023-03-03T07:10:05;41.07;;;23.87;;
5904;SDS011;2978;42.012;24.880;2023-03-03T07:12:37;35.27;;;24.17;;
5904;SDS011;2978;42.012;24.880;2023-03-03T07:17:37;36.97;;;23.30;;
5904;SDS011;2978;42.012;24.880;2023-03-03T07:20:13;39.53;;;23.33;;
5904;SDS011;2978;42.012;24.880;2023-03-03T07:22:48;32.53;;;21.73;;
5904;SDS011;2978;42.012;24.880;2023-03-03T07:25:25;33.20;;;19.93;;
5904;SDS011;2978;42.012;24.880;2023-03-03T07:28:00;32.97;;;21.53;;
5904;SDS011;2978;42.012;24.880;2023-03-03T07:30:52;27.67;;;19.03;;
5904;SDS011;2978;42.012;24.880;2023-03-03T07:33:26;24.50;;;17.47;;
5904;SDS011;2978;42.012;24.880;2023-03-03T07:35:55;29.67;;;21.03;;
5904;SDS011;2978;42.012;24.880;2023-03-03T07:38:23;34.23;;;22.00;;
5904;SDS011;2978;42.012;24.880;2023-03-03T07:41:02;37.03;;;20.87;;
5904;SDS011;2978;42.012;24.880;2023-03-03T07:43:30;26.07;;;19.00;;
5904;SDS011;2978;42.012;24.880;2023-03-03T07:48:41;31.53;;;21.50;;
5904;SDS011;2978;42.012;24.880;2023-03-03T07:53:46;34.13;;;19.83;;
5904;SDS011;2978;42.012;24.880;2023-03-03T07:56:23;32.03;;;20.23;;
5904;SDS011;2978;42.012;24.880;2023-03-03T07:58:53;28.50;;;20.60;;
5904;SDS011;2978;42.012;24.880;2023-03-03T08:06:58;33.97;;;21.17;;
5904;SDS011;2978;42.012;24.880;2023-03-03T08:09:30;30.70;;;20.33;;
5904;SDS011;2978;42.012;24.880;2023-03-03T08:12:01;27.87;;;20.20;;
5904;SDS011;2978;42.012;24.880;2023-03-03T08:14:42;28.13;;;20.20;;
5904;SDS011;2978;42.012;24.880;2023-03-03T08:17:16;32.70;;;20.43;;
5904;SDS011;2978;42.012;24.880;2023-03-03T08:19:45;32.40;;;21.93;;
5904;SDS011;2978;42.012;24.880;2023-03-03T08:22:15;36.93;;;24.00;;
5904;SDS011;2978;42.012;24.880;2023-03-03T08:24:43;30.70;;;21.67;;
5904;SDS011;2978;42.012;24.880;2023-03-03T08:27:08;36.87;;;22.57;;
5904;SDS011;2978;42.012;24.880;2023-03-03T08:29:34;33.73;;;20.87;;
5904;SDS011;2978;42.012;24.880;2023-03-03T08:31:59;33.77;;;21.70;;
5904;SDS011;2978;42.012;24.880;2023-03-03T08:34:25;32.80;;;21.37;;
5904;SDS011;2978;42.012;24.880;2023-03-03T08:36:50;27.20;;;21.87;;
5904;SDS011;2978;42.012;24.880;2023-03-03T08:39:16;32.67;;;22.07;;
5904;SDS011;2978;42.012;24.880;2023-03-03T08:41:41;29.03;;;21.87;;
5904;SDS011;2978;42.012;24.880;2023-03-03T08:44:08;35.47;;;22.63;;
5904;SDS011;2978;42.012;24.880;2023-03-03T08:46:34;29.27;;;22.10;;
5904;SDS011;2978;42.012;24.880;2023-03-03T08:49:00;37.30;;;24.30;;
5904;SDS011;2978;42.012;24.880;2023-03-03T08:51:25;31.87;;;22.30;;
5904;SDS011;2978;42.012;24.880;2023-03-03T08:53:51;32.70;;;21.50;;
5904;SDS011;2978;42.012;24.880;2023-03-03T08:56:16;38.57;;;22.60;;
5904;SDS011;2978;42.012;24.880;2023-03-03T08:58:42;35.23;;;21.73;;
5904;SDS011;2978;42.012;24.880;2023-03-03T09:01:12;35.47;;;22.87;;
5904;SDS011;2978;42.012;24.880;2023-03-03T09:03:39;34.70;;;23.40;;
5904;SDS011;2978;42.012;24.880;2023-03-03T09:06:05;38.67;;;24.43;;
5904;SDS011;2978;42.012;24.880;2023-03-03T09:08:30;40.67;;;23.07;;
5904;SDS011;2978;42.012;24.880;2023-03-03T09:10:56;36.90;;;24.40;;
5904;SDS011;2978;42.012;24.880;2023-03-03T09:13:21;32.40;;;23.30;;
5904;SDS011;2978;42.012;24.880;2023-03-03T09:15:47;34.90;;;23.90;;
5904;SDS011;2978;42.012;24.880;2023-03-03T09:20:46;29.30;;;18.40;;
5904;SDS011;2978;42.012;24.880;2023-03-03T09:23:23;24.13;;;16.23;;
5904;SDS011;2978;42.012;24.880;2023-03-03T09:26:29;27.67;;;19.80;;
5904;SDS011;2978;42.012;24.880;2023-03-03T09:31:38;22.30;;;15.60;;
5904;SDS011;2978;42.012;24.880;2023-03-03T09:34:11;22.00;;;14.87;;
5904;SDS011;2978;42.012;24.880;2023-03-03T09:36:46;19.67;;;14.50;;
5904;SDS011;2978;42.012;24.880;2023-03-03T09:55:34;22.20;;;14.30;;
5904;SDS011;2978;42.012;24.880;2023-03-03T09:58:13;19.70;;;12.60;;
5904;SDS011;2978;42.012;24.880;2023-03-03T10:01:05;24.33;;;15.30;;
5904;SDS011;2978;42.012;24.880;2023-03-03T10:17:34;46.93;;;26.57;;
5904;SDS011;2978;42.012;24.880;2023-03-03T10:23:16;25.87;;;14.77;;
5904;SDS011;2978;42.012;24.880;2023-03-03T10:25:52;21.60;;;14.70;;
5904;SDS011;2978;42.012;24.880;2023-03-03T10:33:59;19.77;;;13.43;;
5904;SDS011;2978;42.012;24.880;2023-03-03T10:36:54;20.43;;;14.43;;
5904;SDS011;2978;42.012;24.880;2023-03-03T10:53:24;25.03;;;15.80;;
5904;SDS011;2978;42.012;24.880;2023-03-03T10:58:59;25.80;;;16.80;;
5904;SDS011;2978;42.012;24.880;2023-03-03T11:01:58;26.73;;;16.60;;
5904;SDS011;2978;42.012;24.880;2023-03-03T11:09:58;28.10;;;18.90;;
5904;SDS011;2978;42.012;24.880;2023-03-03T11:17:53;31.63;;;16.43;;
5904;SDS011;2978;42.012;24.880;2023-03-03T11:25:47;25.03;;;15.03;;
5904;SDS011;2978;42.012;24.880;2023-03-03T11:28:28;24.77;;;15.00;;
5904;SDS011;2978;42.012;24.880;2023-03-03T11:31:06;20.50;;;14.60;;
5904;SDS011;2978;42.012;24.880;2023-03-03T11:36:51;26.57;;;14.37;;
5904;SDS011;2978;42.012;24.880;2023-03-03T11:39:25;21.30;;;14.53;;
5904;SDS011;2978;42.012;24.880;2023-03-03T11:44:31;23.80;;;13.57;;
5904;SDS011;2978;42.012;24.880;2023-03-03T11:47:00;19.13;;;14.73;;
5904;SDS011;2978;42.012;24.880;2023-03-03T11:49:42;25.43;;;14.10;;
5904;SDS011;2978;42.012;24.880;2023-03-03T11:55:18;26.90;;;14.47;;
5904;SDS011;2978;42.012;24.880;2023-03-03T12:00:39;28.63;;;15.70;;
5904;SDS011;2978;42.012;24.880;2023-03-03T12:09:55;29.23;;;20.10;;
5904;SDS011;2978;42.012;24.880;2023-03-03T12:12:23;24.90;;;16.50;;
5904;SDS011;2978;42.012;24.880;2023-03-03T12:21:18;27.73;;;16.00;;
5904;SDS011;2978;42.012;24.880;2023-03-03T12:29:26;38.43;;;15.40;;
5904;SDS011;2978;42.012;24.880;2023-03-03T12:35:24;23.00;;;15.30;;
5904;SDS011;2978;42.012;24.880;2023-03-03T12:38:23;21.20;;;15.33;;
5904;SDS011;2978;42.012;24.880;2023-03-03T12:44:09;21.87;;;13.97;;
5904;SDS011;2978;42.012;24.880;2023-03-03T12:46:58;30.50;;;15.90;;
5904;SDS011;2978;42.012;24.880;2023-03-03T12:49:35;34.67;;;18.20;;
5904;SDS011;2978;42.012;24.880;2023-03-03T12:57:18;30.87;;;16.00;;
5904;SDS011;2978;42.012;24.880;2023-03-03T13:08:40;23.43;;;14.10;;
5904;SDS011;2978;42.012;24.880;2023-03-03T13:19:40;37.77;;;17.30;;
5904;SDS011;2978;42.012;24.880;2023-03-03T13:22:36;34.53;;;17.03;;
5904;SDS011;2978;42.012;24.880;2023-03-03T13:30:46;34.13;;;20.20;;
5904;SDS011;2978;42.012;24.880;2023-03-03T13:33:23;33.80;;;22.13;;
5904;SDS011;2978;42.012;24.880;2023-03-03T13:35:56;25.70;;;18.60;;
5904;SDS011;2978;42.012;24.880;2023-03-03T13:38:46;25.20;;;16.63;;
5904;SDS011;2978;42.012;24.880;2023-03-03T13:44:08;27.40;;;17.33;;
5904;SDS011;2978;42.012;24.880;2023-03-03T13:46:46;29.07;;;19.23;;
5904;SDS011;2978;42.012;24.880;2023-03-03T13:52:18;28.03;;;17.57;;
5904;SDS011;2978;42.012;24.880;2023-03-03T14:00:24;26.77;;;16.93;;
5904;SDS011;2978;42.012;24.880;2023-03-03T14:05:45;29.13;;;19.40;;
5904;SDS011;2978;42.012;24.880;2023-03-03T14:11:18;34.23;;;19.60;;
5904;SDS011;2978;42.012;24.880;2023-03-03T14:24:55;26.57;;;17.60;;
5904;SDS011;2978;42.012;24.880;2023-03-03T14:27:26;49.83;;;24.83;;
5904;SDS011;2978;42.012;24.880;2023-03-03T14:29:58;31.00;;;20.50;;
5904;SDS011;2978;42.012;24.880;2023-03-03T14:32:24;26.40;;;18.93;;
5904;SDS011;2978;42.012;24.880;2023-03-03T14:35:00;27.17;;;17.60;;
5904;SDS011;2978;42.012;24.880;2023-03-03T14:37:44;25.30;;;16.57;;
5904;SDS011;2978;42.012;24.880;2023-03-03T14:40:29;28.70;;;19.00;;
5904;SDS011;2978;42.012;24.880;2023-03-03T14:42:58;24.97;;;16.53;;
5904;SDS011;2978;42.012;24.880;2023-03-03T14:45:30;26.50;;;18.10;;
5904;SDS011;2978;42.012;24.880;2023-03-03T14:50:40;41.33;;;23.27;;
5904;SDS011;2978;42.012;24.880;2023-03-03T14:53:10;37.37;;;23.30;;
5904;SDS011;2978;42.012;24.880;2023-03-03T14:55:40;38.47;;;23.10;;
5904;SDS011;2978;42.012;24.880;2023-03-03T14:58:07;30.17;;;15.90;;
5904;SDS011;2978;42.012;24.880;2023-03-03T15:01:20;23.87;;;16.57;;
5904;SDS011;2978;42.012;24.880;2023-03-03T15:03:48;25.03;;;17.30;;
5904;SDS011;2978;42.012;24.880;2023-03-03T15:12:23;25.37;;;17.63;;
5904;SDS011;2978;42.012;24.880;2023-03-03T15:17:40;21.70;;;16.53;;
5904;SDS011;2978;42.012;24.880;2023-03-03T15:20:23;22.20;;;17.00;;
5904;SDS011;2978;42.012;24.880;2023-03-03T15:25:43;22.33;;;17.40;;
5904;SDS011;2978;42.012;24.880;2023-03-03T15:42:02;29.90;;;23.00;;
5904;SDS011;2978;42.012;24.880;2023-03-03T15:56:11;47.83;;;28.70;;
5904;SDS011;2978;42.012;24.880;2023-03-03T16:04:23;44.93;;;26.60;;
5904;SDS011;2978;42.012;24.880;2023-03-03T16:23:13;48.80;;;28.00;;
5904;SDS011;2978;42.012;24.880;2023-03-03T16:29:06;54.10;;;26.87;;
5904;SDS011;2978;42.012;24.880;2023-03-03T16:34:55;43.50;;;24.27;;
5904;SDS011;2978;42.012;24.880;2023-03-03T16:37:43;34.33;;;22.80;;
5904;SDS011;2978;42.012;24.880;2023-03-03T16:54:32;49.90;;;25.93;;
5904;SDS011;2978;42.012;24.880;2023-03-03T17:00:11;50.63;;;24.10;;
5904;SDS011;2978;42.012;24.880;2023-03-03T17:11:01;48.33;;;28.37;;
5904;SDS011;2978;42.012;24.880;2023-03-03T17:24:33;52.13;;;33.93;;
5904;SDS011;2978;42.012;24.880;2023-03-03T17:27:23;55.90;;;32.80;;
5904;SDS011;2978;42.012;24.880;2023-03-03T17:30:05;59.10;;;30.20;;
5904;SDS011;2978;42.012;24.880;2023-03-03T17:40:39;53.90;;;29.60;;
5904;SDS011;2978;42.012;24.880;2023-03-03T17:43:15;52.53;;;29.50;;
5904;SDS011;2978;42.012;24.880;2023-03-03T17:45:43;51.33;;;30.53;;
5904;SDS011;2978;42.012;24.880;2023-03-03T17:50:54;62.13;;;32.10;;
5904;SDS011;2978;42.012;24.880;2023-03-03T17:56:27;58.63;;;35.27;;
5904;SDS011;2978;42.012;24.880;2023-03-03T18:02:17;63.80;;;39.50;;
5904;SDS011;2978;42.012;24.880;2023-03-03T18:10:07;57.20;;;36.53;;
5904;SDS011;2978;42.012;24.880;2023-03-03T18:20:58;52.07;;;30.40;;
5904;SDS011;2978;42.012;24.880;2023-03-03T18:28:45;42.23;;;29.87;;
5904;SDS011;2978;42.012;24.880;2023-03-03T18:31:14;56.33;;;34.70;;
5904;SDS011;2978;42.012;24.880;2023-03-03T18:39:40;46.47;;;30.40;;
5904;SDS011;2978;42.012;24.880;2023-03-03T18:44:43;57.87;;;32.93;;
5904;SDS011;2978;42.012;24.880;2023-03-03T18:47:09;88.47;;;42.50;;
5904;SDS011;2978;42.012;24.880;2023-03-03T18:52:23;73.37;;;41.37;;
5904;SDS011;2978;42.012;24.880;2023-03-03T18:55:01;58.03;;;35.97;;
5904;SDS011;2978;42.012;24.880;2023-03-03T18:57:26;60.80;;;38.40;;
5904;SDS011;2978;42.012;24.880;2023-03-03T19:02:32;67.83;;;40.77;;
5904;SDS011;2978;42.012;24.880;2023-03-03T19:07:55;63.03;;;33.90;;
5904;SDS011;2978;42.012;24.880;2023-03-03T19:18:02;68.40;;;36.97;;
5904;SDS011;2978;42.012;24.880;2023-03-03T19:20:38;63.43;;;35.37;;
5904;SDS011;2978;42.012;24.880;2023-03-03T19:23:10;67.00;;;39.80;;
5904;SDS011;2978;42.012;24.880;2023-03-03T19:25:39;60.47;;;36.83;;
5904;SDS011;2978;42.012;24.880;2023-03-03T19:33:54;37.90;;;25.40;;
5904;SDS011;2978;42.012;24.880;2023-03-03T19:36:39;43.43;;;29.60;;
5904;SDS011;2978;42.012;24.880;2023-03-03T19:42:29;41.43;;;27.33;;
5904;SDS011;2978;42.012;24.880;2023-03-03T19:58:59;52.00;;;29.50;;
5904;SDS011;2978;42.012;24.880;2023-03-03T20:09:41;39.80;;;26.93;;
5904;SDS011;2978;42.012;24.880;2023-03-03T20:14:46;43.33;;;26.80;;
5904;SDS011;2978;42.012;24.880;2023-03-03T20:20:28;36.27;;;24.63;;
5904;SDS011;2978;42.012;24.880;2023-03-03T20:25:35;37.23;;;23.57;;
5904;SDS011;2978;42.012;24.880;2023-03-03T20:28:19;39.27;;;24.83;;
5904;SDS011;2978;42.012;24.880;2023-03-03T20:36:22;40.73;;;26.43;;
5904;SDS011;2978;42.012;24.880;2023-03-03T20:38:59;48.10;;;27.60;;
5904;SDS011;2978;42.012;24.880;2023-03-03T20:51:42;44.27;;;24.87;;
5904;SDS011;2978;42.012;24.880;2023-03-03T21:03:13;28.30;;;18.73;;
5904;SDS011;2978;42.012;24.880;2023-03-03T21:11:05;26.23;;;17.00;;
5904;SDS011;2978;42.012;24.880;2023-03-03T21:13:38;22.67;;;17.47;;
5904;SDS011;2978;42.012;24.880;2023-03-03T21:21:20;28.10;;;19.13;;
5904;SDS011;2978;42.012;24.880;2023-03-03T21:23:46;25.30;;;16.40;;
5904;SDS011;2978;42.012;24.880;2023-03-03T21:26:11;23.17;;;16.20;;
5904;SDS011;2978;42.012;24.880;2023-03-03T21:28:37;22.37;;;16.00;;
5904;SDS011;2978;42.012;24.880;2023-03-03T21:33:42;19.77;;;15.10;;
5904;SDS011;2978;42.012;24.880;2023-03-03T21:36:13;22.60;;;15.70;;
5904;SDS011;2978;42.012;24.880;2023-03-03T21:38:41;19.63;;;14.80;;
5904;SDS011;2978;42.012;24.880;2023-03-03T21:41:07;21.40;;;14.00;;
5904;SDS011;2978;42.012;24.880;2023-03-03T21:43:34;25.40;;;13.33;;
5904;SDS011;2978;42.012;24.880;2023-03-03T21:46:01;17.53;;;14.70;;
5904;SDS011;2978;42.012;24.880;2023-03-03T21:48:26;19.70;;;14.37;;
5904;SDS011;2978;42.012;24.880;2023-03-03T21:50:51;23.10;;;15.03;;
5904;SDS011;2978;42.012;24.880;2023-03-03T21:53:17;23.27;;;14.37;;
5904;SDS011;2978;42.012;24.880;2023-03-03T21:55:43;21.90;;;13.87;;
5904;SDS011;2978;42.012;24.880;2023-03-03T21:58:13;24.03;;;14.03;;
5904;SDS011;2978;42.012;24.880;2023-03-03T22:00:38;25.77;;;16.00;;
5904;SDS011;2978;42.012;24.880;2023-03-03T22:03:04;23.60;;;14.83;;
5904;SDS011;2978;42.012;24.880;2023-03-03T22:05:29;25.67;;;14.60;;
5904;SDS011;2978;42.012;24.880;2023-03-03T22:07:55;22.23;;;14.47;;
5904;SDS011;2978;42.012;24.880;2023-03-03T22:10:20;20.80;;;16.00;;
5904;SDS011;2978;42.012;24.880;2023-03-03T22:12:46;17.83;;;14.23;;
5904;SDS011;2978;42.012;24.880;2023-03-03T22:15:11;20.70;;;14.20;;